Time;durP1;ratioP1;P1;durP2;ratioP2;P2;SDS_P1;SDS_P2;PMS_P1;PMS_P2;Temp;Humidity;BMP_temperature;BMP_pressure;BME280_temperature;BME280_humidity;BME280_pressure;Samples;Min_cycle;Max_cycle;Signal;HPM_P1;HPM_P2
2022/09/26 00:01:16;;;;;;;4.60;3.70;;;15.00;59.80;;;;;;5092201;28;20039;-76
2022/09/26 00:03:44;;;;;;;4.00;3.40;;;15.00;59.80;;;;;;5092200;28;20114;-78
2022/09/26 00:06:11;;;;;;;4.90;3.50;;;15.00;59.80;;;;;;5090122;28;20031;-78
2022/09/26 00:08:37;;;;;;;4.65;3.60;;;15.00;59.80;;;;;;5074268;28;20024;-78
2022/09/26 00:11:06;;;;;;;4.90;3.60;;;14.90;59.80;;;;;;5092214;28;20032;-79
2022/09/26 00:13:34;;;;;;;3.95;3.40;;;14.90;59.80;;;;;;5092367;28;20054;-79
2022/09/26 00:16:01;;;;;;;6.25;3.60;;;15.00;59.90;;;;;;5092591;28;20036;-76
2022/09/26 00:18:27;;;;;;;4.25;3.55;;;14.90;59.80;;;;;;5093356;28;20032;-77
2022/09/26 00:21:00;;;;;;;4.13;3.40;;;14.90;59.90;;;;;;5075688;28;20028;-79
2022/09/26 00:23:26;;;;;;;4.57;3.47;;;14.90;59.90;;;;;;5076202;28;20038;-78
2022/09/26 00:25:51;;;;;;;4.25;3.08;;;14.90;60.00;;;;;;5093419;28;20620;-78
2022/09/26 00:28:17;;;;;;;4.22;3.42;;;14.80;60.00;;;;;;5093705;28;20377;-78
2022/09/26 00:30:43;;;;;;;4.35;3.60;;;14.90;60.00;;;;;;5093450;28;20032;-75
2022/09/26 00:33:10;;;;;;;4.20;3.28;;;14.80;60.00;;;;;;5075576;28;20028;-78
2022/09/26 00:35:36;;;;;;;4.55;3.65;;;14.80;60.00;;;;;;5075743;28;20032;-77
2022/09/26 00:38:03;;;;;;;3.85;3.45;;;14.90;60.00;;;;;;5075562;28;20397;-78
2022/09/26 00:40:29;;;;;;;4.28;3.28;;;14.80;60.00;;;;;;5075396;28;20462;-79
2022/09/26 00:42:55;;;;;;;4.70;3.58;;;14.80;60.00;;;;;;5075536;28;20020;-78
2022/09/26 00:45:22;;;;;;;4.28;3.33;;;14.80;60.00;;;;;;5093685;28;20363;-78
2022/09/26 00:48:00;;;;;;;5.43;3.92;;;14.80;60.00;;;;;;5093713;28;20120;-78
2022/09/26 00:50:31;;;;;;;4.55;3.55;;;14.80;60.10;;;;;;5075634;28;20059;-78
2022/09/26 00:53:21;;;;;;;5.30;3.70;;;14.80;60.10;;;;;;5093452;28;20028;-79
2022/09/26 00:55:51;;;;;;;4.95;3.70;;;14.80;60.10;;;;;;5093641;28;20473;-78
2022/09/26 00:58:25;;;;;;;4.70;3.50;;;14.70;60.00;;;;;;5093299;28;20036;-78
2022/09/26 01:00:51;;;;;;;4.38;3.78;;;14.80;60.10;;;;;;5061448;28;20065;-78
2022/09/26 01:03:18;;;;;;;5.13;3.60;;;14.70;60.00;;;;;;5096820;28;20046;-79
2022/09/26 01:05:45;;;;;;;4.13;3.13;;;14.70;60.00;;;;;;5097387;28;20115;-78
2022/09/26 01:08:12;;;;;;;4.43;3.47;;;14.70;60.10;;;;;;5096866;28;20036;-78
2022/09/26 01:10:38;;;;;;;4.40;3.45;;;14.70;60.10;;;;;;5097164;28;20032;-78
2022/09/26 01:13:06;;;;;;;4.55;3.65;;;14.70;60.10;;;;;;5078816;28;20028;-78
2022/09/26 01:15:33;;;;;;;5.20;3.58;;;14.70;60.10;;;;;;5097055;28;20501;-80
2022/09/26 01:17:59;;;;;;;4.80;3.80;;;14.60;60.10;;;;;;5096630;28;20123;-78
2022/09/26 01:20:30;;;;;;;5.43;3.63;;;14.70;60.10;;;;;;5096603;28;20111;-78
2022/09/26 01:23:49;;;;;;;4.25;3.47;;;14.70;60.20;;;;;;5096387;28;20386;-78
2022/09/26 01:26:26;;;;;;;4.50;3.42;;;14.70;60.10;;;;;;5033907;28;20063;-76
2022/09/26 01:29:19;;;;;;;3.90;3.30;;;14.60;60.10;;;;;;5096289;28;20059;-79
2022/09/26 01:34:56;;;;;;;4.47;3.10;;;14.60;60.10;;;;;;5096661;28;20028;-78
2022/09/26 01:37:42;;;;;;;4.82;3.40;;;14.60;60.10;;;;;;5096049;28;20462;-77
2022/09/26 01:40:26;;;;;;;3.88;3.25;;;14.60;60.10;;;;;;5078115;28;20111;-77
2022/09/26 01:43:20;;;;;;;4.47;3.70;;;14.60;60.20;;;;;;5078020;28;20025;-78
2022/09/26 01:46:02;;;;;;;4.65;3.38;;;14.60;60.20;;;;;;5096198;28;20097;-78
2022/09/26 01:48:41;;;;;;;4.60;3.53;;;14.50;60.10;;;;;;5096240;28;20028;-77
2022/09/26 01:51:19;;;;;;;4.53;3.60;;;14.50;60.20;;;;;;5096124;28;20020;-78
2022/09/26 01:53:54;;;;;;;4.47;3.40;;;14.50;60.20;;;;;;5078158;28;20115;-79
2022/09/26 01:56:23;;;;;;;4.55;3.40;;;14.50;60.20;;;;;;5095809;28;20032;-78
2022/09/26 01:59:15;;;;;;;4.00;3.20;;;14.50;60.20;;;;;;5078246;28;20123;-78
2022/09/26 02:01:44;;;;;;;4.15;3.17;;;14.50;60.20;;;;;;5049523;28;20036;-78
2022/09/26 02:04:15;;;;;;;4.13;3.38;;;14.50;60.20;;;;;;5096219;28;20027;-78
2022/09/26 02:06:43;;;;;;;3.88;3.20;;;14.50;60.20;;;;;;5095653;28;20458;-75
2022/09/26 02:09:15;;;;;;;4.70;3.20;;;14.50;60.20;;;;;;5095784;28;20113;-78
2022/09/26 02:11:44;;;;;;;3.97;2.90;;;14.50;60.30;;;;;;5077152;28;20024;-78
2022/09/26 02:14:18;;;;;;;4.47;3.38;;;14.50;60.20;;;;;;5077187;28;20086;-78
2022/09/26 02:16:50;;;;;;;3.70;3.20;;;14.50;60.30;;;;;;5095753;28;20067;-78
2022/09/26 02:19:29;;;;;;;6.72;3.20;;;14.40;60.20;;;;;;5095452;28;20044;-77
2022/09/26 02:21:57;;;;;;;3.65;3.05;;;14.50;60.30;;;;;;5077693;28;20024;-79
2022/09/26 02:24:23;;;;;;;3.75;3.17;;;14.50;60.30;;;;;;5095498;28;20094;-78
2022/09/26 02:26:50;;;;;;;4.15;3.10;;;14.50;60.30;;;;;;5095333;28;20024;-77
2022/09/26 02:29:16;;;;;;;4.18;3.20;;;14.40;60.20;;;;;;5095482;28;20073;-77
2022/09/26 02:32:01;;;;;;;3.55;3.03;;;14.40;60.30;;;;;;5077047;28;20427;-78
2022/09/26 02:34:28;;;;;;;4.32;3.17;;;14.40;60.30;;;;;;5095460;28;20032;-78
2022/09/26 02:36:56;;;;;;;3.70;3.00;;;14.40;60.30;;;;;;5095135;28;20024;-78
2022/09/26 02:39:22;;;;;;;3.67;3.00;;;14.40;60.40;;;;;;5077149;28;20096;-76
2022/09/26 02:42:08;;;;;;;3.53;2.85;;;14.40;60.40;;;;;;5094975;28;20016;-78
2022/09/26 02:44:48;;;;;;;3.47;2.97;;;14.40;60.40;;;;;;5095197;28;20044;-78
2022/09/26 02:47:17;;;;;;;3.63;3.00;;;14.40;60.40;;;;;;5094969;28;20462;-77
2022/09/26 02:50:07;;;;;;;3.35;2.80;;;14.40;60.40;;;;;;5094663;28;20107;-79
2022/09/26 02:52:57;;;;;;;4.22;3.13;;;14.40;60.40;;;;;;5094604;28;20024;-78
2022/09/26 02:55:54;;;;;;;4.38;3.25;;;14.40;60.40;;;;;;5077138;28;20024;-78
2022/09/26 02:58:38;;;;;;;4.18;2.90;;;14.40;60.40;;;;;;5095027;28;20036;-79
2022/09/26 03:01:09;;;;;;;3.30;2.88;;;14.40;60.30;;;;;;5094818;28;20048;-79
2022/09/26 03:03:43;;;;;;;3.55;2.97;;;14.30;60.30;;;;;;5094624;28;20489;-77
2022/09/26 03:06:14;;;;;;;3.25;2.85;;;14.40;60.30;;;;;;5094602;28;20075;-79
2022/09/26 03:08:45;;;;;;;3.10;2.80;;;14.40;60.40;;;;;;5094640;28;20489;-77
2022/09/26 03:11:15;;;;;;;3.53;3.00;;;14.40;60.30;;;;;;5076153;28;20027;-78
2022/09/26 03:13:41;;;;;;;3.25;2.88;;;14.40;60.40;;;;;;5094757;28;20478;-78
2022/09/26 03:16:09;;;;;;;3.53;3.00;;;14.30;60.30;;;;;;5076916;28;20119;-78
2022/09/26 03:19:16;;;;;;;3.15;2.85;;;14.30;60.30;;;;;;5076308;28;20035;-78
2022/09/26 03:21:44;;;;;;;3.08;2.67;;;14.30;60.30;;;;;;5093237;28;20484;-77
2022/09/26 03:24:10;;;;;;;3.55;2.70;;;14.30;60.30;;;;;;5093397;28;20365;-78
2022/09/26 03:26:37;;;;;;;4.53;3.20;;;14.30;60.30;;;;;;5094294;28;20133;-78
2022/09/26 03:29:03;;;;;;;3.53;2.90;;;14.30;60.30;;;;;;5076024;28;20028;-76
2022/09/26 03:31:28;;;;;;;3.67;3.03;;;14.30;60.30;;;;;;5094116;28;20027;-80
2022/09/26 03:33:54;;;;;;;3.58;3.00;;;14.30;60.30;;;;;;5076314;28;20028;-75
2022/09/26 03:36:23;;;;;;;3.78;3.08;;;14.30;60.30;;;;;;5093801;28;20420;-78
2022/09/26 03:38:49;;;;;;;4.57;3.20;;;14.30;60.30;;;;;;5076204;28;20114;-78
2022/09/26 03:41:14;;;;;;;4.82;3.47;;;14.30;60.40;;;;;;5094160;28;20459;-77
2022/09/26 03:43:42;;;;;;;4.60;3.40;;;14.20;60.30;;;;;;5094223;28;20462;-77
2022/09/26 03:46:13;;;;;;;4.45;3.50;;;14.30;60.30;;;;;;5093805;28;20493;-80
2022/09/26 03:48:39;;;;;;;4.35;3.63;;;14.30;60.40;;;;;;5075826;28;20032;-78
2022/09/26 03:51:11;;;;;;;5.05;3.60;;;14.30;60.40;;;;;;5075473;28;20028;-77
2022/09/26 03:53:40;;;;;;;4.22;3.22;;;14.20;60.30;;;;;;5075413;28;20078;-78
2022/09/26 03:56:17;;;;;;;5.10;3.70;;;14.20;60.30;;;;;;5093540;28;20390;-78
2022/09/26 03:58:43;;;;;;;5.50;3.67;;;14.20;60.30;;;;;;5094076;28;20032;-78
2022/09/26 04:01:15;;;;;;;4.93;3.55;;;14.30;60.40;;;;;;5093360;28;20032;-78
2022/09/26 04:03:43;;;;;;;4.72;3.47;;;14.20;60.30;;;;;;5093766;28;20466;-78
2022/09/26 04:06:10;;;;;;;4.72;3.60;;;14.30;60.40;;;;;;5092893;28;20012;-79
2022/09/26 04:08:37;;;;;;;4.82;3.70;;;14.30;60.40;;;;;;5093934;28;20119;-78
2022/09/26 04:11:08;;;;;;;4.88;3.60;;;14.30;60.30;;;;;;5074282;28;20024;-78
2022/09/26 04:13:34;;;;;;;5.03;3.55;;;14.30;60.30;;;;;;5093170;28;20414;-78
2022/09/26 04:16:00;;;;;;;4.72;3.30;;;14.30;60.30;;;;;;5074929;28;20076;-81
2022/09/26 04:18:27;;;;;;;4.88;3.42;;;14.30;60.20;;;;;;5074594;28;20032;-79
2022/09/26 04:21:00;;;;;;;4.18;3.10;;;14.30;60.20;;;;;;5092995;28;20027;-78
2022/09/26 04:23:31;;;;;;;3.83;3.03;;;14.30;60.20;;;;;;5090642;28;20028;-76
2022/09/26 04:26:05;;;;;;;3.45;3.13;;;14.40;60.20;;;;;;5092545;28;20161;-76
2022/09/26 04:28:32;;;;;;;3.60;3.00;;;14.40;60.20;;;;;;5091404;28;20027;-80
2022/09/26 04:30:59;;;;;;;3.08;2.78;;;14.50;60.20;;;;;;5074494;28;20537;-76
2022/09/26 04:33:25;;;;;;;3.80;3.05;;;14.50;60.10;;;;;;5075379;28;20500;-75
2022/09/26 04:35:51;;;;;;;3.17;2.85;;;14.50;60.00;;;;;;5094878;28;20024;-78
2022/09/26 04:38:17;;;;;;;3.45;2.70;;;14.50;60.20;;;;;;5078442;28;20032;-80
2022/09/26 04:40:43;;;;;;;3.35;2.70;;;14.50;60.20;;;;;;5096355;28;20024;-77
2022/09/26 04:43:10;;;;;;;3.38;2.90;;;14.60;60.20;;;;;;5097151;28;20077;-78
2022/09/26 04:45:35;;;;;;;3.45;2.90;;;14.60;60.10;;;;;;5096308;28;20054;-78
2022/09/26 04:48:01;;;;;;;2.90;2.60;;;14.60;60.00;;;;;;5096728;28;20132;-81
2022/09/26 04:50:27;;;;;;;3.08;2.78;;;14.60;60.00;;;;;;5096201;28;20808;-81
2022/09/26 04:52:53;;;;;;;3.17;2.80;;;14.60;60.00;;;;;;5095687;28;20462;-79
2022/09/26 04:55:19;;;;;;;3.70;2.80;;;14.60;59.90;;;;;;5096091;28;20047;-78
2022/09/26 04:57:48;;;;;;;3.03;2.67;;;14.70;59.90;;;;;;5096816;28;20051;-78
2022/09/26 05:00:14;;;;;;;6.53;2.80;;;14.60;59.90;;;;;;5095262;28;20028;-77
2022/09/26 05:02:40;;;;;;;2.78;2.47;;;14.70;59.90;;;;;;5095690;28;20028;-78
2022/09/26 05:05:08;;;;;;;3.30;2.60;;;14.70;59.80;;;;;;5077170;28;20100;-79
2022/09/26 05:07:39;;;;;;;3.88;2.78;;;14.70;59.80;;;;;;5095408;28;20545;-78
2022/09/26 05:10:05;;;;;;;4.70;3.50;;;14.70;59.80;;;;;;5095755;28;20050;-79
2022/09/26 05:12:31;;;;;;;5.05;3.90;;;14.80;59.90;;;;;;5078192;28;20035;-80
2022/09/26 05:14:57;;;;;;;4.70;3.78;;;14.70;59.80;;;;;;5096941;28;20024;-78
2022/09/26 05:17:23;;;;;;;4.95;3.58;;;14.80;59.80;;;;;;5096159;28;20039;-80
2022/09/26 05:19:48;;;;;;;4.50;3.40;;;14.80;59.70;;;;;;5095621;28;20050;-80
2022/09/26 05:22:14;;;;;;;4.05;3.45;;;14.80;59.70;;;;;;5095728;28;20028;-79
2022/09/26 05:27:24;;;;;;;4.53;3.43;;;14.90;59.60;;;;;;5096441;28;20468;-82
2022/09/26 05:29:55;;;;;;;4.32;3.38;;;14.90;59.60;;;;;;5096634;28;20120;-81
2022/09/26 05:32:21;;;;;;;4.43;3.10;;;15.00;59.50;;;;;;5096432;28;20543;-82
2022/09/26 05:34:47;;;;;;;3.45;2.83;;;15.00;59.50;;;;;;5078702;28;20048;-83
2022/09/26 05:37:13;;;;;;;4.10;3.10;;;15.10;59.40;;;;;;5097285;28;20442;-83
2022/09/26 05:42:23;;;;;;;2.75;2.50;;;15.20;59.30;;;;;;5096843;28;20132;-81
2022/09/26 05:44:51;;;;;;;3.20;2.53;;;15.20;59.20;;;;;;5098145;28;20056;-81
2022/09/26 05:47:17;;;;;;;3.70;2.92;;;15.30;59.20;;;;;;5096742;28;20347;-82
2022/09/26 05:49:43;;;;;;;4.47;3.40;;;15.40;59.10;;;;;;5096129;28;20035;-82
2022/09/26 05:52:08;;;;;;;4.15;3.20;;;15.40;59.10;;;;;;5096277;28;20031;-82
2022/09/26 05:54:34;;;;;;;3.88;3.33;;;15.40;59.00;;;;;;5096548;28;20024;-80
2022/09/26 05:57:00;;;;;;;3.33;2.78;;;15.50;59.10;;;;;;5095959;28;20527;-82
2022/09/26 05:59:25;;;;;;;3.97;3.15;;;15.50;59.00;;;;;;5095771;28;20036;-81
2022/09/26 06:01:51;;;;;;;3.75;2.90;;;15.50;59.00;;;;;;5077815;28;20081;-82
2022/09/26 06:04:17;;;;;;;3.22;2.80;;;15.50;59.00;;;;;;5095710;28;20085;-81
2022/09/26 06:06:43;;;;;;;3.95;3.30;;;15.50;59.00;;;;;;5096065;28;20085;-81
2022/09/26 06:09:08;;;;;;;3.90;2.78;;;15.50;59.00;;;;;;5096092;28;20454;-81
2022/09/26 06:11:34;;;;;;;2.88;2.60;;;15.50;59.10;;;;;;5095887;28;20027;-83
2022/09/26 06:14:00;;;;;;;3.28;2.78;;;15.50;59.10;;;;;;5095754;28;20080;-81
2022/09/26 06:16:25;;;;;;;3.22;2.80;;;15.50;59.40;;;;;;5077734;28;20079;-81
2022/09/26 06:18:54;;;;;;;3.05;2.70;;;15.50;59.20;;;;;;5077577;28;20059;-82
2022/09/26 06:21:20;;;;;;;3.28;2.67;;;15.50;59.20;;;;;;5096162;28;20024;-83
2022/09/26 06:23:46;;;;;;;2.97;2.67;;;15.50;59.30;;;;;;5095610;28;20059;-80
2022/09/26 06:26:16;;;;;;;3.17;2.75;;;15.50;59.30;;;;;;5095368;28;20028;-81
2022/09/26 06:28:42;;;;;;;3.72;2.50;;;15.60;59.30;;;;;;5097339;28;20024;-82
2022/09/26 06:31:12;;;;;;;4.90;2.70;;;15.60;59.30;;;;;;5077227;28;20031;-82
2022/09/26 06:33:38;;;;;;;2.90;2.58;;;15.70;59.30;;;;;;5077555;28;20078;-81
2022/09/26 06:36:06;;;;;;;3.45;2.80;;;15.70;59.30;;;;;;5095413;28;20032;-82
2022/09/26 06:38:32;;;;;;;3.35;2.85;;;15.80;59.20;;;;;;5095196;28;20032;-82
2022/09/26 06:40:58;;;;;;;3.58;2.80;;;15.80;59.20;;;;;;5095219;28;20077;-81
2022/09/26 06:43:24;;;;;;;3.83;2.78;;;15.90;59.10;;;;;;5095143;28;20032;-81
2022/09/26 06:45:49;;;;;;;2.70;2.42;;;16.00;59.10;;;;;;5095490;28;20048;-81
2022/09/26 06:48:16;;;;;;;3.67;2.58;;;16.00;58.90;;;;;;5077050;28;20059;-80
2022/09/26 06:50:42;;;;;;;2.92;2.63;;;16.00;58.90;;;;;;5096268;28;20093;-81
2022/09/26 06:53:07;;;;;;;2.53;2.33;;;16.10;58.90;;;;;;5096364;28;20028;-82
2022/09/26 06:55:33;;;;;;;2.83;2.50;;;16.00;58.90;;;;;;5076923;28;20515;-82
2022/09/26 06:57:59;;;;;;;2.92;2.53;;;16.00;58.90;;;;;;5094556;28;20472;-82
2022/09/26 07:00:25;;;;;;;2.58;2.30;;;16.00;58.90;;;;;;5076611;28;20024;-82
2022/09/26 07:02:52;;;;;;;2.47;2.28;;;16.10;58.90;;;;;;5094740;28;20477;-82
2022/09/26 07:05:19;;;;;;;2.60;2.40;;;16.00;58.80;;;;;;5094684;28;20035;-83
2022/09/26 07:07:46;;;;;;;2.22;2.03;;;16.10;58.80;;;;;;5076462;28;20377;-81
2022/09/26 07:10:14;;;;;;;2.58;2.10;;;16.00;58.80;;;;;;5094801;28;20032;-82
2022/09/26 07:12:42;;;;;;;2.47;2.28;;;16.00;58.80;;;;;;5094776;28;20073;-81
2022/09/26 07:15:12;;;;;;;2.63;2.42;;;16.00;58.80;;;;;;5094380;28;20367;-81
2022/09/26 07:17:39;;;;;;;2.47;2.28;;;16.00;58.80;;;;;;5094425;28;20093;-81
2022/09/26 07:20:08;;;;;;;2.92;2.30;;;16.10;58.90;;;;;;5094806;28;20039;-81
2022/09/26 07:22:33;;;;;;;2.75;2.30;;;16.10;58.90;;;;;;5078086;28;20048;-82
2022/09/26 07:24:59;;;;;;;3.10;2.40;;;16.10;58.90;;;;;;5094808;28;20024;-79
2022/09/26 07:27:25;;;;;;;3.08;2.40;;;16.10;58.90;;;;;;5094093;28;20475;-81
2022/09/26 07:29:51;;;;;;;2.45;2.17;;;16.20;58.90;;;;;;5094225;28;20047;-81
2022/09/26 07:32:17;;;;;;;2.60;2.40;;;16.20;58.80;;;;;;5094183;28;20382;-82
2022/09/26 07:34:43;;;;;;;2.55;2.35;;;16.30;58.80;;;;;;5076572;28;20093;-82
2022/09/26 07:37:08;;;;;;;3.28;2.40;;;16.40;58.70;;;;;;5093678;28;20447;-82
2022/09/26 07:39:34;;;;;;;2.58;2.38;;;16.50;58.70;;;;;;5075813;28;20170;-82
2022/09/26 07:42:03;;;;;;;3.47;2.40;;;16.50;58.50;;;;;;5094284;28;20028;-80
2022/09/26 07:44:29;;;;;;;2.95;2.58;;;16.60;58.50;;;;;;5093761;28;20485;-81
2022/09/26 07:52:23;;;;;;;2.67;2.40;;;16.70;58.30;;;;;;5093722;28;20244;-82
2022/09/26 07:54:48;;;;;;;2.75;2.40;;;16.80;58.20;;;;;;5094275;28;20032;-82
2022/09/26 07:57:14;;;;;;;3.25;2.33;;;16.80;58.10;;;;;;5094345;28;20024;-82
2022/09/26 07:59:40;;;;;;;3.33;2.63;;;16.90;58.10;;;;;;5093812;28;20059;-82
2022/09/26 08:02:19;;;;;;;2.78;2.42;;;16.90;58.00;;;;;;5093857;28;20020;-81
2022/09/26 08:04:44;;;;;;;2.58;2.38;;;16.90;58.00;;;;;;5093999;28;20078;-81
2022/09/26 08:07:11;;;;;;;2.97;2.33;;;17.00;58.00;;;;;;5093815;28;20471;-81
2022/09/26 08:09:37;;;;;;;2.53;2.22;;;17.00;57.90;;;;;;5094229;28;20036;-82
2022/09/26 08:12:03;;;;;;;2.60;2.22;;;17.00;57.90;;;;;;5098186;28;20370;-83
2022/09/26 08:14:28;;;;;;;3.80;2.40;;;17.00;58.50;;;;;;5098311;28;20464;-82
2022/09/26 08:16:55;;;;;;;4.63;2.50;;;17.00;58.00;;;;;;5099652;28;20432;-82
2022/09/26 08:19:21;;;;;;;2.58;2.38;;;17.10;57.90;;;;;;5097900;28;20075;-82
2022/09/26 08:21:48;;;;;;;2.53;2.30;;;17.10;57.90;;;;;;5079746;28;20028;-82
2022/09/26 08:24:13;;;;;;;3.40;2.47;;;17.10;57.90;;;;;;5097930;28;20097;-82
2022/09/26 08:26:39;;;;;;;4.05;2.30;;;17.20;57.90;;;;;;5080288;28;20453;-82
2022/09/26 08:29:09;;;;;;;2.42;2.22;;;17.20;57.80;;;;;;5097614;28;20028;-82
2022/09/26 08:31:38;;;;;;;2.53;2.22;;;17.30;57.90;;;;;;5097698;28;20024;-83
2022/09/26 08:34:05;;;;;;;3.50;2.33;;;17.30;57.80;;;;;;5097498;28;20028;-81
2022/09/26 08:36:31;;;;;;;2.80;2.25;;;17.40;57.80;;;;;;5097416;28;20020;-81
2022/09/26 08:38:58;;;;;;;3.25;2.60;;;17.40;57.70;;;;;;5097166;28;20504;-81
2022/09/26 08:41:32;;;;;;;2.40;2.20;;;17.40;57.60;;;;;;5097533;28;20039;-81
2022/09/26 08:43:58;;;;;;;;;;;17.50;57.60;;;;;;5097873;28;20473;-80
2022/09/26 08:46:53;;;;;;;2.40;2.20;;;17.50;57.40;;;;;;5079457;28;19915;-83
2022/09/26 08:49:41;;;;;;;2.30;2.10;;;17.60;57.50;;;;;;5097803;28;20178;-82
2022/09/26 08:52:27;;;;;;;2.63;2.33;;;17.70;57.40;;;;;;5097173;28;20111;-82
2022/09/26 08:55:00;;;;;;;2.92;2.60;;;17.70;57.90;;;;;;5079143;28;20077;-81
2022/09/26 08:57:46;;;;;;;2.95;2.55;;;17.80;57.30;;;;;;5096875;28;20031;-81
2022/09/26 09:00:25;;;;;;;3.03;2.72;;;17.80;57.20;;;;;;5097478;28;20051;-82
2022/09/26 09:03:34;;;;;;;2.90;2.58;;;17.90;57.20;;;;;;5097161;28;20097;-81
2022/09/26 09:06:05;;;;;;;4.00;2.90;;;18.00;57.10;;;;;;5048965;28;20039;-81
2022/09/26 09:08:55;;;;;;;4.30;3.13;;;18.00;57.10;;;;;;5098550;28;20032;-84
2022/09/26 09:11:49;;;;;;;4.15;3.30;;;18.10;57.00;;;;;;5079881;28;20031;-83
2022/09/26 09:14:33;;;;;;;4.18;3.30;;;18.10;56.80;;;;;;5060792;28;20043;-82
2022/09/26 09:17:33;;;;;;;4.00;3.08;;;18.10;56.90;;;;;;5096812;28;20028;-82
2022/09/26 09:19:59;;;;;;;4.22;3.20;;;18.20;56.90;;;;;;5078452;28;20036;-81
2022/09/26 09:22:37;;;;;;;5.45;3.50;;;18.20;56.90;;;;;;5078435;28;20114;-80
2022/09/26 09:25:15;;;;;;;5.05;3.53;;;18.20;56.80;;;;;;5078533;28;20420;-82
2022/09/26 09:27:54;;;;;;;4.90;3.63;;;18.20;56.90;;;;;;5078397;28;20063;-81
2022/09/26 09:30:26;;;;;;;5.75;4.10;;;18.20;57.00;;;;;;5096298;28;20024;-81
2022/09/26 09:33:17;;;;;;;5.32;3.65;;;18.20;57.00;;;;;;5077976;28;20031;-81
2022/09/26 09:35:50;;;;;;;6.55;3.83;;;18.10;56.90;;;;;;5096292;28;20107;-82
2022/09/26 09:38:19;;;;;;;7.28;3.65;;;18.10;57.00;;;;;;5077911;28;20466;-83
2022/09/26 09:40:47;;;;;;;5.32;3.88;;;18.20;57.10;;;;;;5096072;28;20057;-83
2022/09/26 09:43:25;;;;;;;5.95;3.95;;;18.20;57.80;;;;;;5095996;28;20035;-81
2022/09/26 09:45:54;;;;;;;6.20;4.25;;;18.20;57.20;;;;;;5096916;28;20127;-81
2022/09/26 09:48:19;;;;;;;7.25;4.63;;;18.30;57.20;;;;;;5061748;28;20457;-82
2022/09/26 09:51:06;;;;;;;8.30;5.05;;;18.30;57.20;;;;;;5096031;28;20060;-82
2022/09/26 09:54:10;;;;;;;8.45;4.65;;;18.30;57.10;;;;;;5078158;28;20425;-81
2022/09/26 09:57:02;;;;;;;9.00;4.25;;;18.30;57.00;;;;;;5077719;28;20039;-82
2022/09/26 09:59:34;;;;;;;7.90;4.65;;;18.30;57.00;;;;;;5078023;28;20446;-82
2022/09/26 10:02:27;;;;;;;7.65;4.47;;;18.30;57.10;;;;;;5096103;28;20538;-81
2022/09/26 10:05:17;;;;;;;7.65;5.53;;;18.30;57.00;;;;;;5077738;28;20028;-77
2022/09/26 10:07:48;;;;;;;7.95;4.57;;;18.20;57.10;;;;;;5077425;28;20085;-80
2022/09/26 10:10:39;;;;;;;8.57;4.70;;;18.20;57.20;;;;;;5077432;28;20034;-83
2022/09/26 10:13:06;;;;;;;6.90;4.40;;;18.20;57.20;;;;;;5077838;28;20028;-80
2022/09/26 10:15:43;;;;;;;6.18;4.18;;;18.20;57.30;;;;;;5095304;28;20450;-82
2022/09/26 10:18:17;;;;;;;5.85;3.90;;;18.20;57.30;;;;;;5095388;28;20036;-81
2022/09/26 10:20:52;;;;;;;5.65;4.15;;;18.30;57.30;;;;;;5077259;28;20085;-81
2022/09/26 10:23:32;;;;;;;6.57;4.10;;;18.30;57.30;;;;;;5077228;28;20064;-81
2022/09/26 10:26:06;;;;;;;6.80;3.90;;;18.30;58.00;;;;;;5077492;28;20032;-81
2022/09/26 10:28:34;;;;;;;5.53;3.80;;;18.30;57.40;;;;;;5077237;28;20046;-82
2022/09/26 10:31:07;;;;;;;5.43;3.50;;;18.30;57.40;;;;;;5076886;28;20020;-81
2022/09/26 10:33:35;;;;;;;5.10;3.35;;;18.30;57.50;;;;;;5094571;28;20107;-81
2022/09/26 10:36:30;;;;;;;4.32;3.20;;;18.30;57.50;;;;;;5077415;28;20031;-80
2022/09/26 10:41:45;;;;;;;4.13;3.60;;;18.30;57.50;;;;;;5095504;28;20039;-82
2022/09/26 10:44:26;;;;;;;5.78;3.63;;;18.40;57.60;;;;;;5095332;28;20454;-81
2022/09/26 10:46:56;;;;;;;4.78;3.08;;;18.40;57.60;;;;;;5095487;28;20032;-81
2022/09/26 10:49:34;;;;;;;4.28;3.10;;;18.50;57.60;;;;;;5076877;28;20043;-81
2022/09/26 10:52:15;;;;;;;3.75;2.88;;;18.50;57.50;;;;;;5095629;28;20104;-81
2022/09/26 10:54:58;;;;;;;5.45;3.20;;;18.60;57.50;;;;;;5077149;28;20024;-82
2022/09/26 10:57:28;;;;;;;3.95;3.15;;;18.70;57.50;;;;;;5096306;28;20024;-81
2022/09/26 10:59:58;;;;;;;4.45;2.95;;;18.70;57.50;;;;;;5094702;28;20462;-82
2022/09/26 11:02:26;;;;;;;4.60;2.85;;;18.70;57.50;;;;;;5095420;28;20024;-82
2022/09/26 11:07:46;;;;;;;4.43;3.10;;;18.90;57.50;;;;;;5094633;28;20027;-81
2022/09/26 11:10:16;;;;;;;3.83;2.92;;;18.90;57.50;;;;;;5094700;28;20027;-82
2022/09/26 11:13:01;;;;;;;3.10;2.75;;;19.00;57.50;;;;;;5095151;28;20103;-81
2022/09/26 11:15:27;;;;;;;3.75;3.00;;;19.00;57.50;;;;;;5076816;28;20028;-82
2022/09/26 11:17:54;;;;;;;3.17;2.85;;;19.10;57.50;;;;;;5094590;28;20060;-81
2022/09/26 11:20:47;;;;;;;3.35;2.88;;;19.10;57.40;;;;;;5076258;28;20454;-81
2022/09/26 11:23:34;;;;;;;3.63;2.90;;;19.20;57.40;;;;;;5094402;28;20028;-82
2022/09/26 11:26:32;;;;;;;3.40;2.88;;;19.20;57.40;;;;;;5094457;28;20107;-80
2022/09/26 11:29:41;;;;;;;2.92;2.40;;;19.20;57.30;;;;;;5094238;28;20024;-81
2022/09/26 11:32:22;;;;;;;2.60;2.40;;;19.20;57.30;;;;;;5076343;28;20143;-82
2022/09/26 11:34:51;;;;;;;2.83;2.50;;;19.20;57.40;;;;;;5059680;28;20020;-81
2022/09/26 11:37:37;;;;;;;3.08;2.55;;;19.20;57.30;;;;;;5094381;28;20385;-81
2022/09/26 11:40:15;;;;;;;4.18;2.50;;;19.20;57.30;;;;;;5068636;28;20048;-81
2022/09/26 11:42:59;;;;;;;2.67;2.47;;;19.30;57.40;;;;;;5094413;28;20026;-82
2022/09/26 11:45:26;;;;;;;2.80;2.47;;;19.20;57.30;;;;;;5085937;28;20044;-82
2022/09/26 11:48:05;;;;;;;2.72;2.53;;;19.20;57.30;;;;;;5093950;28;20120;-81
2022/09/26 11:51:09;;;;;;;2.90;2.42;;;19.20;57.30;;;;;;5095508;28;20114;-81
2022/09/26 11:54:09;;;;;;;2.85;2.20;;;19.20;57.30;;;;;;5094043;28;20055;-81
2022/09/26 11:57:07;;;;;;;3.30;2.38;;;19.20;57.30;;;;;;5078556;28;20122;-81
2022/09/26 12:00:00;;;;;;;2.40;2.20;;;19.30;57.40;;;;;;5094358;28;20070;-81
2022/09/26 12:02:47;;;;;;;2.40;2.20;;;19.40;57.40;;;;;;5093837;28;20028;-81
2022/09/26 12:05:23;;;;;;;3.30;2.42;;;19.50;57.40;;;;;;5094094;28;20016;-82
2022/09/26 12:08:13;;;;;;;3.58;2.65;;;19.50;57.30;;;;;;5093822;28;20035;-83
2022/09/26 12:10:49;;;;;;;2.40;2.20;;;19.60;57.20;;;;;;5094242;28;20028;-81
2022/09/26 12:13:20;;;;;;;2.65;2.30;;;19.60;57.20;;;;;;5093851;28;20028;-81
2022/09/26 12:16:01;;;;;;;2.97;2.40;;;19.60;57.20;;;;;;5093822;28;20028;-82
2022/09/26 12:18:31;;;;;;;2.55;2.35;;;19.60;57.30;;;;;;5093979;28;20043;-81
2022/09/26 12:21:12;;;;;;;2.40;2.10;;;19.60;57.30;;;;;;5094037;28;20031;-84
2022/09/26 12:23:53;;;;;;;2.30;2.13;;;19.60;57.40;;;;;;5094188;28;20099;-79
2022/09/26 12:26:30;;;;;;;2.90;2.47;;;19.60;57.40;;;;;;5094431;28;20048;-81
2022/09/26 12:29:26;;;;;;;2.53;2.30;;;19.70;57.40;;;;;;5093389;28;20339;-82
2022/09/26 12:31:51;;;;;;;4.25;2.47;;;19.70;57.40;;;;;;5092756;28;20078;-82
2022/09/26 12:35:00;;;;;;;2.72;2.50;;;19.70;57.40;;;;;;5094246;28;20438;-77
2022/09/26 12:37:56;;;;;;;2.30;2.10;;;19.60;57.50;;;;;;5082920;28;20087;-83
2022/09/26 12:40:35;;;;;;;2.40;2.20;;;19.60;57.50;;;;;;5094487;28;20051;-80
2022/09/26 12:43:24;;;;;;;4.15;2.40;;;19.60;57.60;;;;;;5094054;28;20470;-81
2022/09/26 12:46:13;;;;;;;2.92;2.28;;;19.60;57.60;;;;;;5094248;28;20097;-81
2022/09/26 12:49:05;;;;;;;2.47;2.28;;;19.60;57.70;;;;;;5093970;28;20043;-81
2022/09/26 12:51:41;;;;;;;2.65;2.28;;;19.70;57.90;;;;;;5093471;28;20028;-82
2022/09/26 12:54:16;;;;;;;3.00;2.30;;;19.80;57.90;;;;;;5093793;28;20031;-82
2022/09/26 12:56:58;;;;;;;2.45;2.20;;;19.80;57.80;;;;;;5094864;28;20028;-82
2022/09/26 12:59:48;;;;;;;2.88;2.42;;;19.90;57.80;;;;;;5078523;28;20111;-82
2022/09/26 13:02:54;;;;;;;2.30;2.10;;;19.80;57.80;;;;;;5079118;28;20028;-80
2022/09/26 13:05:35;;;;;;;2.50;2.30;;;19.70;57.90;;;;;;5096617;28;20514;-82
2022/09/26 13:08:35;;;;;;;2.33;2.13;;;19.70;57.90;;;;;;5097049;28;20528;-81
2022/09/26 13:11:10;;;;;;;3.00;2.58;;;19.70;58.00;;;;;;5096874;28;20032;-81
2022/09/26 13:13:56;;;;;;;2.20;2.00;;;19.70;58.00;;;;;;5096449;28;20052;-81
2022/09/26 13:16:49;;;;;;;2.40;2.20;;;19.70;58.20;;;;;;5096297;28;20492;-81
2022/09/26 13:19:27;;;;;;;4.10;2.55;;;19.60;58.20;;;;;;5078644;28;20044;-83
2022/09/26 13:22:19;;;;;;;3.10;2.50;;;19.60;58.30;;;;;;5078491;28;20488;-81
2022/09/26 13:25:00;;;;;;;2.47;2.28;;;19.60;58.50;;;;;;5078958;28;20028;-81
2022/09/26 13:27:39;;;;;;;2.75;2.55;;;19.80;58.60;;;;;;5096685;28;20024;-82
2022/09/26 13:30:12;;;;;;;3.88;2.60;;;19.90;58.60;;;;;;5096433;28;20055;-81
2022/09/26 13:32:54;;;;;;;2.85;2.55;;;20.00;58.40;;;;;;5096870;28;20032;-81
2022/09/26 13:35:26;;;;;;;3.05;2.65;;;20.10;58.30;;;;;;5097118;28;20024;-83
2022/09/26 13:37:57;;;;;;;2.97;2.67;;;20.20;58.20;;;;;;5079924;28;20028;-82
2022/09/26 13:40:42;;;;;;;2.88;2.55;;;20.10;58.10;;;;;;5062361;28;20028;-82